Time;durP1;ratioP1;P1;durP2;ratioP2;P2;SDS_P1;SDS_P2;PMS_P1;PMS_P2;Temp;Humidity;BMP_temperature;BMP_pressure;BME280_temperature;BME280_humidity;BME280_pressure;Samples;Min_cycle;Max_cycle;Signal;HPM_P1;HPM_P2
2023/03/09 00:01:37;;;;;;;36.72;17.88;;;;;;;;;;5038026;28;99103;-77
2023/03/09 00:04:04;;;;;;;27.92;18.40;;;;;;;;;;5034806;28;99131;-77
2023/03/09 00:06:32;;;;;;;21.63;13.10;;;;;;;;;;5037977;28;98361;-79
2023/03/09 00:09:00;;;;;;;23.25;11.98;;;;;;;;;;5041386;28;98559;-78
2023/03/09 00:11:26;;;;;;;28.70;18.65;;;;;;;;;;5044717;28;99549;-78
2023/03/09 00:13:53;;;;;;;28.73;17.73;;;;;;;;;;5022573;28;99569;-78
2023/03/09 00:16:22;;;;;;;26.30;17.33;;;;;;;;;;5034826;27;100532;-78
2023/03/09 00:18:51;;;;;;;34.97;19.13;;;;;;;;;;5027901;28;98265;-78
2023/03/09 00:21:38;;;;;;;31.42;19.23;;;;;;;;;;5013910;28;98763;-79
2023/03/09 00:24:06;;;;;;;32.78;17.70;;;;;;;;;;5012989;28;99035;-79
2023/03/09 00:26:38;;;;;;;33.35;18.45;;;;;;;;;;5013936;27;98610;-78
2023/03/09 00:29:06;;;;;;;35.33;20.30;;;;;;;;;;5016304;28;98820;-78
2023/03/09 00:31:33;;;;;;;31.80;17.33;;;;;;;;;;5015203;28;99106;-79
2023/03/09 00:34:01;;;;;;;27.95;17.70;;;;;;;;;;5029476;28;98425;-78
2023/03/09 00:36:28;;;;;;;23.08;14.07;;;;;;;;;;5011579;27;99359;-78
2023/03/09 00:38:56;;;;;;;19.45;12.18;;;;;;;;;;5016663;28;98858;-79
2023/03/09 00:41:24;;;;;;;32.35;16.65;;;;;;;;;;5010440;28;98601;-78
2023/03/09 00:43:50;;;;;;;29.27;16.48;;;;;;;;;;5031523;27;100031;-78
2023/03/09 00:46:17;;;;;;;26.40;16.45;;;;;;;;;;5032840;27;98585;-78
2023/03/09 00:48:43;;;;;;;25.75;16.33;;;;;;;;;;5035669;27;98293;-78
2023/03/09 00:51:10;;;;;;;20.98;15.30;;;;;;;;;;5033556;28;98890;-78
2023/03/09 00:53:37;;;;;;;22.48;15.23;;;;;;;;;;5039748;28;98415;-79
2023/03/09 00:56:05;;;;;;;26.27;16.58;;;;;;;;;;5039598;28;100769;-79
2023/03/09 00:58:32;;;;;;;31.45;18.90;;;;;;;;;;5046664;27;98866;-78
2023/03/09 01:00:58;;;;;;;27.92;17.23;;;;;;;;;;5048627;28;98506;-78
2023/03/09 01:03:25;;;;;;;25.52;17.48;;;;;;;;;;5047360;27;99052;-78
2023/03/09 01:05:51;;;;;;;22.00;15.63;;;;;;;;;;5041653;27;98467;-78
2023/03/09 01:08:18;;;;;;;26.33;17.27;;;;;;;;;;5040506;28;98733;-79
2023/03/09 01:10:45;;;;;;;24.75;16.60;;;;;;;;;;5042291;27;98572;-79
2023/03/09 01:13:11;;;;;;;27.27;16.73;;;;;;;;;;5030961;28;98609;-78
2023/03/09 01:15:37;;;;;;;20.58;14.20;;;;;;;;;;5035050;28;98575;-78
2023/03/09 01:18:04;;;;;;;28.52;16.88;;;;;;;;;;5030855;27;98477;-78
2023/03/09 01:20:30;;;;;;;22.52;14.18;;;;;;;;;;5031969;27;98435;-78
2023/03/09 01:22:57;;;;;;;25.85;16.80;;;;;;;;;;5031946;28;99198;-79
2023/03/09 01:25:24;;;;;;;25.17;15.15;;;;;;;;;;5029564;28;99079;-77
2023/03/09 01:27:52;;;;;;;24.52;16.92;;;;;;;;;;5029557;28;101051;-77
2023/03/09 01:30:18;;;;;;;17.10;12.52;;;;;;;;;;5028405;28;101580;-78
2023/03/09 01:32:45;;;;;;;22.70;16.58;;;;;;;;;;5029651;28;98154;-77
2023/03/09 01:35:12;;;;;;;19.25;14.40;;;;;;;;;;5028940;28;101498;-77
2023/03/09 01:37:38;;;;;;;22.70;15.75;;;;;;;;;;5029127;28;98955;-77
2023/03/09 01:40:06;;;;;;;18.65;12.65;;;;;;;;;;5010068;28;98750;-77
2023/03/09 01:42:36;;;;;;;11.25;8.80;;;;;;;;;;5009507;28;100282;-77
2023/03/09 01:45:28;;;;;;;20.95;13.35;;;;;;;;;;5010800;28;98282;-77
2023/03/09 01:47:58;;;;;;;31.40;18.07;;;;;;;;;;5010449;28;98371;-78
2023/03/09 01:50:27;;;;;;;19.33;14.40;;;;;;;;;;5042597;27;99492;-77
2023/03/09 01:52:55;;;;;;;28.98;17.67;;;;;;;;;;5009299;28;98282;-78
2023/03/09 01:55:23;;;;;;;20.58;15.55;;;;;;;;;;5009339;28;100516;-79
2023/03/09 01:57:55;;;;;;;28.42;17.30;;;;;;;;;;5010611;28;98871;-78
2023/03/09 02:00:24;;;;;;;27.05;16.90;;;;;;;;;;5011703;28;98299;-79
2023/03/09 02:03:00;;;;;;;28.75;15.50;;;;;;;;;;5008732;28;99641;-77
2023/03/09 02:05:31;;;;;;;24.05;17.50;;;;;;;;;;5042829;27;98616;-77
2023/03/09 02:07:58;;;;;;;23.33;16.80;;;;;;;;;;5041059;27;98805;-78
2023/03/09 02:10:32;;;;;;;16.05;11.52;;;;;;;;;;5009147;28;100908;-78
2023/03/09 02:13:03;;;;;;;27.45;18.25;;;;;;;;;;5010368;28;98149;-79
2023/03/09 02:15:29;;;;;;;25.52;17.92;;;;;;;;;;5008475;28;101431;-77
2023/03/09 02:17:56;;;;;;;28.92;17.75;;;;;;;;;;5010178;28;98965;-79
2023/03/09 02:20:34;;;;;;;31.67;19.20;;;;;;;;;;5007810;28;98512;-79
2023/03/09 02:23:02;;;;;;;28.75;20.25;;;;;;;;;;5013667;28;98449;-78
2023/03/09 02:25:33;;;;;;;26.92;17.30;;;;;;;;;;5010881;28;98214;-78
2023/03/09 02:28:00;;;;;;;25.17;17.35;;;;;;;;;;5006928;28;100335;-77
2023/03/09 02:30:28;;;;;;;28.27;16.83;;;;;;;;;;5008025;28;99272;-77
2023/03/09 02:33:01;;;;;;;24.35;16.90;;;;;;;;;;5009485;28;98228;-78
2023/03/09 02:35:28;;;;;;;28.88;18.45;;;;;;;;;;5043009;27;100271;-78
2023/03/09 02:37:55;;;;;;;29.38;16.67;;;;;;;;;;5028888;28;99885;-78
2023/03/09 02:40:34;;;;;;;23.48;16.23;;;;;;;;;;5029664;28;98798;-78
2023/03/09 02:43:07;;;;;;;31.17;18.67;;;;;;;;;;5034537;28;98734;-78
2023/03/09 02:45:34;;;;;;;28.15;18.27;;;;;;;;;;5032639;28;98462;-78
2023/03/09 02:48:02;;;;;;;28.70;18.50;;;;;;;;;;5035476;27;101132;-78
2023/03/09 02:50:29;;;;;;;39.35;20.25;;;;;;;;;;5032655;28;101071;-78
2023/03/09 02:52:55;;;;;;;27.52;17.40;;;;;;;;;;5034602;28;98109;-77
2023/03/09 02:55:22;;;;;;;21.38;14.68;;;;;;;;;;5033850;28;101465;-78
2023/03/09 02:57:49;;;;;;;25.65;17.30;;;;;;;;;;5032061;28;101135;-78
2023/03/09 03:00:21;;;;;;;27.50;18.17;;;;;;;;;;5032006;28;98250;-78
2023/03/09 03:02:47;;;;;;;27.02;18.23;;;;;;;;;;5033261;28;99687;-78
2023/03/09 03:05:14;;;;;;;34.65;20.67;;;;;;;;;;5038704;28;101456;-78
2023/03/09 03:07:42;;;;;;;24.70;16.08;;;;;;;;;;5037210;27;98094;-78
2023/03/09 03:10:09;;;;;;;27.90;18.48;;;;;;;;;;5035875;28;101990;-78
2023/03/09 03:12:37;;;;;;;25.00;18.00;;;;;;;;;;5044537;28;98579;-77
2023/03/09 03:15:04;;;;;;;23.08;12.90;;;;;;;;;;5033107;27;98443;-78
2023/03/09 03:17:31;;;;;;;26.25;16.58;;;;;;;;;;5019641;28;98926;-79
2023/03/09 03:19:57;;;;;;;28.17;18.45;;;;;;;;;;5014975;28;98262;-78
2023/03/09 03:22:25;;;;;;;24.13;17.30;;;;;;;;;;5014339;28;99919;-78
2023/03/09 03:24:51;;;;;;;22.85;15.55;;;;;;;;;;5012623;28;98987;-80
2023/03/09 03:27:19;;;;;;;28.80;18.35;;;;;;;;;;5016646;28;98402;-79
2023/03/09 03:29:46;;;;;;;32.97;18.33;;;;;;;;;;5011804;28;99042;-77
2023/03/09 03:32:12;;;;;;;20.17;13.00;;;;;;;;;;5009814;28;98585;-78
2023/03/09 03:34:39;;;;;;;28.05;17.38;;;;;;;;;;5017594;27;98508;-79
2023/03/09 03:37:06;;;;;;;32.85;19.67;;;;;;;;;;5026164;28;101413;-79
2023/03/09 03:39:33;;;;;;;25.02;16.63;;;;;;;;;;5007329;28;98274;-79
2023/03/09 03:42:03;;;;;;;30.90;15.75;;;;;;;;;;5011293;28;98652;-77
2023/03/09 03:44:30;;;;;;;27.30;17.02;;;;;;;;;;5011612;28;101529;-77
2023/03/09 03:46:57;;;;;;;31.35;18.63;;;;;;;;;;5010333;28;98280;-78
2023/03/09 03:49:25;;;;;;;26.33;15.70;;;;;;;;;;5023722;28;100358;-78
2023/03/09 03:51:53;;;;;;;18.88;14.07;;;;;;;;;;5030447;28;98809;-78
2023/03/09 03:54:20;;;;;;;28.33;17.17;;;;;;;;;;5032066;28;100786;-79
2023/03/09 03:56:46;;;;;;;29.10;17.90;;;;;;;;;;5031112;27;99921;-78
2023/03/09 03:59:13;;;;;;;27.30;16.98;;;;;;;;;;5029391;28;98276;-78
2023/03/09 04:01:40;;;;;;;25.98;17.33;;;;;;;;;;5030876;27;99432;-79
2023/03/09 04:04:08;;;;;;;27.00;16.27;;;;;;;;;;5030490;28;99145;-78
2023/03/09 04:06:38;;;;;;;23.83;15.10;;;;;;;;;;5029890;28;98597;-78
2023/03/09 04:09:06;;;;;;;26.23;16.08;;;;;;;;;;5031048;27;99431;-78
2023/03/09 04:11:34;;;;;;;26.88;16.90;;;;;;;;;;5033869;27;100889;-78
2023/03/09 04:14:01;;;;;;;27.92;16.42;;;;;;;;;;5030212;28;100505;-79
2023/03/09 04:16:28;;;;;;;24.52;15.98;;;;;;;;;;5032542;27;99794;-79
2023/03/09 04:18:54;;;;;;;26.80;16.67;;;;;;;;;;5031963;27;98615;-78
2023/03/09 04:21:22;;;;;;;21.58;14.73;;;;;;;;;;5029997;27;98678;-78
2023/03/09 04:23:49;;;;;;;23.48;16.75;;;;;;;;;;5028666;27;101788;-79
2023/03/09 04:26:16;;;;;;;27.38;14.75;;;;;;;;;;5030463;28;98272;-78
2023/03/09 04:29:14;;;;;;;28.33;17.05;;;;;;;;;;5012663;27;98258;-79
2023/03/09 04:31:41;;;;;;;30.73;17.23;;;;;;;;;;5031251;28;98919;-79
2023/03/09 04:34:09;;;;;;;26.80;16.90;;;;;;;;;;5033456;28;98290;-80
2023/03/09 04:36:36;;;;;;;24.77;15.15;;;;;;;;;;5029609;28;99440;-79
2023/03/09 04:39:04;;;;;;;29.77;18.23;;;;;;;;;;5031979;28;98207;-78
2023/03/09 04:41:36;;;;;;;22.83;15.38;;;;;;;;;;5011526;28;98600;-80
2023/03/09 04:44:06;;;;;;;30.48;17.90;;;;;;;;;;5010476;28;100269;-80
2023/03/09 04:46:33;;;;;;;33.92;18.00;;;;;;;;;;5010282;28;98417;-80
2023/03/09 04:49:02;;;;;;;27.48;18.95;;;;;;;;;;5009090;28;101161;-80
2023/03/09 04:51:29;;;;;;;27.67;17.83;;;;;;;;;;5009430;28;100897;-80
2023/03/09 04:53:57;;;;;;;32.33;19.15;;;;;;;;;;5013003;28;98243;-81
2023/03/09 04:56:25;;;;;;;30.95;19.33;;;;;;;;;;5010025;28;100947;-81
2023/03/09 04:58:58;;;;;;;;;;;;;;;;;;5044648;27;98264;-80
2023/03/09 05:01:27;;;;;;;27.88;19.08;;;;;;;;;;5010921;28;98344;-80
2023/03/09 05:03:56;;;;;;;30.13;18.02;;;;;;;;;;5026792;27;101348;-81
2023/03/09 05:06:24;;;;;;;30.63;15.32;;;;;;;;;;5030513;27;98333;-80
2023/03/09 05:08:52;;;;;;;29.42;19.30;;;;;;;;;;5030048;28;98684;-79
2023/03/09 05:11:19;;;;;;;32.28;20.50;;;;;;;;;;5029001;28;101797;-80
2023/03/09 05:13:47;;;;;;;23.83;15.27;;;;;;;;;;5024736;28;98343;-80
2023/03/09 05:16:17;;;;;;;33.50;20.42;;;;;;;;;;5011878;28;100691;-79
2023/03/09 05:18:49;;;;;;;32.30;21.38;;;;;;;;;;5009899;28;98301;-79
2023/03/09 05:21:18;;;;;;;23.67;14.13;;;;;;;;;;5010014;28;98681;-80
2023/03/09 05:23:47;;;;;;;30.85;18.00;;;;;;;;;;5009038;28;99945;-79
2023/03/09 05:26:15;;;;;;;30.60;19.05;;;;;;;;;;5010299;28;98284;-80
2023/03/09 05:28:43;;;;;;;30.98;20.35;;;;;;;;;;5009810;28;98600;-80
2023/03/09 05:31:12;;;;;;;36.10;22.30;;;;;;;;;;5009031;28;99057;-80
2023/03/09 05:33:40;;;;;;;32.03;20.42;;;;;;;;;;5009942;28;98056;-80
2023/03/09 05:36:14;;;;;;;31.58;19.95;;;;;;;;;;5009363;28;98526;-80
2023/03/09 05:38:40;;;;;;;25.88;16.33;;;;;;;;;;5026121;27;98963;-80
2023/03/09 05:41:07;;;;;;;35.33;20.38;;;;;;;;;;5029099;27;98781;-79
2023/03/09 05:43:35;;;;;;;35.38;20.77;;;;;;;;;;5029798;28;99360;-79
2023/03/09 05:46:02;;;;;;;30.10;18.85;;;;;;;;;;5030310;27;98961;-79
2023/03/09 05:48:31;;;;;;;33.50;21.85;;;;;;;;;;5018931;28;100824;-79
2023/03/09 05:51:00;;;;;;;32.85;19.50;;;;;;;;;;5009064;28;99980;-79
2023/03/09 05:53:27;;;;;;;35.28;22.13;;;;;;;;;;5008679;28;98262;-79
2023/03/09 05:55:56;;;;;;;32.47;22.13;;;;;;;;;;5009214;28;101257;-79
2023/03/09 05:58:22;;;;;;;23.73;16.15;;;;;;;;;;5008256;28;98896;-79
2023/03/09 06:00:52;;;;;;;29.25;18.30;;;;;;;;;;5012335;28;98349;-79
2023/03/09 06:03:19;;;;;;;28.55;18.73;;;;;;;;;;5040935;27;100008;-78
2023/03/09 06:06:03;;;;;;;30.27;18.35;;;;;;;;;;5009679;28;98287;-79
2023/03/09 06:08:32;;;;;;;35.15;19.80;;;;;;;;;;5008301;28;100838;-79
2023/03/09 06:11:04;;;;;;;34.33;21.17;;;;;;;;;;5008551;28;98388;-79
2023/03/09 06:13:32;;;;;;;33.75;20.85;;;;;;;;;;5008770;28;98281;-78
2023/03/09 06:16:07;;;;;;;36.45;21.77;;;;;;;;;;5009610;28;99608;-77
2023/03/09 06:18:34;;;;;;;33.90;20.10;;;;;;;;;;5028434;27;101809;-79
2023/03/09 06:21:05;;;;;;;33.33;20.98;;;;;;;;;;5028522;28;98294;-78
2023/03/09 06:23:35;;;;;;;36.53;21.00;;;;;;;;;;5013263;28;101172;-77
2023/03/09 06:26:03;;;;;;;36.05;22.25;;;;;;;;;;5008637;28;98301;-77
2023/03/09 06:28:31;;;;;;;43.63;21.63;;;;;;;;;;5007039;28;100321;-77
2023/03/09 06:30:58;;;;;;;36.00;21.60;;;;;;;;;;5008306;28;101067;-77
2023/03/09 06:33:25;;;;;;;30.05;19.58;;;;;;;;;;5008349;28;98248;-77
2023/03/09 06:35:58;;;;;;;34.72;22.67;;;;;;;;;;5008220;28;98971;-77
2023/03/09 06:38:25;;;;;;;35.90;21.63;;;;;;;;;;5043970;27;98958;-77
2023/03/09 06:40:53;;;;;;;36.35;21.55;;;;;;;;;;5007224;28;98484;-77
2023/03/09 06:43:21;;;;;;;31.30;20.23;;;;;;;;;;5009834;28;98293;-77
2023/03/09 06:45:48;;;;;;;31.55;20.92;;;;;;;;;;5011686;28;98371;-77
2023/03/09 06:48:15;;;;;;;24.25;16.35;;;;;;;;;;5007907;28;100327;-77
2023/03/09 06:50:41;;;;;;;31.45;21.83;;;;;;;;;;5009262;28;98875;-77
2023/03/09 06:53:10;;;;;;;38.30;22.80;;;;;;;;;;5007817;28;98301;-77
2023/03/09 06:55:39;;;;;;;36.60;19.88;;;;;;;;;;5007225;28;98797;-78
2023/03/09 06:58:06;;;;;;;37.67;23.10;;;;;;;;;;5007988;28;99028;-78
2023/03/09 07:00:37;;;;;;;29.38;19.88;;;;;;;;;;5009380;28;98360;-77
2023/03/09 07:03:04;;;;;;;34.15;21.80;;;;;;;;;;5014855;28;98639;-77
2023/03/09 07:05:34;;;;;;;29.20;20.05;;;;;;;;;;5012800;28;101015;-77
2023/03/09 07:08:00;;;;;;;31.38;20.70;;;;;;;;;;5015000;28;100744;-77
2023/03/09 07:10:26;;;;;;;34.72;19.55;;;;;;;;;;5028327;27;98702;-76
2023/03/09 07:12:53;;;;;;;32.80;20.63;;;;;;;;;;5039100;28;97923;-77
2023/03/09 07:15:19;;;;;;;27.35;19.27;;;;;;;;;;5024750;28;98659;-76
2023/03/09 07:17:46;;;;;;;29.30;20.98;;;;;;;;;;5039766;27;99272;-77
2023/03/09 07:20:12;;;;;;;26.80;18.30;;;;;;;;;;5027198;27;98220;-76
2023/03/09 07:22:39;;;;;;;29.83;20.23;;;;;;;;;;5044519;27;98370;-76
2023/03/09 07:25:06;;;;;;;29.90;20.52;;;;;;;;;;5027758;28;99294;-76
2023/03/09 07:27:32;;;;;;;26.33;18.23;;;;;;;;;;5015526;28;98367;-76
2023/03/09 07:30:03;;;;;;;30.70;21.42;;;;;;;;;;5009332;28;98896;-76
2023/03/09 07:32:29;;;;;;;32.80;22.45;;;;;;;;;;5008985;28;98445;-76
2023/03/09 07:34:57;;;;;;;29.38;20.40;;;;;;;;;;5009745;28;98577;-75
2023/03/09 07:37:23;;;;;;;32.25;21.33;;;;;;;;;;5008048;28;99219;-76
2023/03/09 07:39:50;;;;;;;30.30;20.20;;;;;;;;;;5008377;28;98694;-77
2023/03/09 07:42:16;;;;;;;32.92;22.35;;;;;;;;;;5007835;28;98530;-77
2023/03/09 07:45:18;;;;;;;35.63;21.02;;;;;;;;;;5006406;28;100443;-76
2023/03/09 07:47:44;;;;;;;27.30;18.20;;;;;;;;;;5014095;28;98244;-76
2023/03/09 07:50:25;;;;;;;29.70;19.77;;;;;;;;;;5018557;28;98953;-76
2023/03/09 07:52:53;;;;;;;30.55;20.05;;;;;;;;;;5014379;28;98602;-76
2023/03/09 07:55:22;;;;;;;29.48;18.92;;;;;;;;;;5027633;27;99454;-76
2023/03/09 07:57:48;;;;;;;28.42;17.13;;;;;;;;;;5017052;28;99219;-76
2023/03/09 08:00:20;;;;;;;29.02;19.58;;;;;;;;;;5028112;28;98777;-76
2023/03/09 08:02:46;;;;;;;31.83;21.48;;;;;;;;;;5029301;28;100058;-76
2023/03/09 08:05:13;;;;;;;33.85;22.02;;;;;;;;;;5027801;27;98913;-77
2023/03/09 08:07:42;;;;;;;30.05;19.45;;;;;;;;;;5027804;27;98122;-76
2023/03/09 08:10:09;;;;;;;34.25;21.90;;;;;;;;;;5027897;27;99377;-76
2023/03/09 08:12:35;;;;;;;26.90;17.63;;;;;;;;;;5031624;27;100175;-76
2023/03/09 08:15:02;;;;;;;28.77;20.00;;;;;;;;;;5028593;27;99419;-76
2023/03/09 08:17:28;;;;;;;28.00;18.35;;;;;;;;;;5028723;27;99170;-76
2023/03/09 08:19:55;;;;;;;30.38;20.40;;;;;;;;;;5028465;27;98047;-76
2023/03/09 08:22:22;;;;;;;27.90;20.27;;;;;;;;;;5028735;28;99664;-76
2023/03/09 08:24:48;;;;;;;28.38;19.08;;;;;;;;;;5028414;27;99267;-76
2023/03/09 08:27:15;;;;;;;30.08;19.92;;;;;;;;;;5031065;27;98296;-77
2023/03/09 08:29:41;;;;;;;29.13;20.13;;;;;;;;;;5031631;28;98392;-76
2023/03/09 08:32:09;;;;;;;32.65;23.60;;;;;;;;;;5031198;27;99008;-76
2023/03/09 08:34:35;;;;;;;31.10;21.88;;;;;;;;;;5034664;27;98225;-76
2023/03/09 08:37:02;;;;;;;30.48;20.05;;;;;;;;;;5027810;28;100020;-76
2023/03/09 08:39:29;;;;;;;32.55;21.42;;;;;;;;;;5017395;27;98318;-76
2023/03/09 08:41:56;;;;;;;28.48;20.95;;;;;;;;;;5030256;27;99928;-76
2023/03/09 08:44:23;;;;;;;28.08;21.42;;;;;;;;;;5038552;27;99115;-78
2023/03/09 08:46:49;;;;;;;25.83;19.63;;;;;;;;;;5031689;28;98237;-78
2023/03/09 08:49:15;;;;;;;26.48;19.60;;;;;;;;;;5030069;27;99523;-78
2023/03/09 08:51:42;;;;;;;29.13;20.63;;;;;;;;;;5018656;27;100137;-78
2023/03/09 08:54:09;;;;;;;27.60;20.88;;;;;;;;;;5035331;28;98308;-79
2023/03/09 08:56:35;;;;;;;27.33;20.45;;;;;;;;;;5016618;27;99783;-77
2023/03/09 08:59:02;;;;;;;25.15;19.45;;;;;;;;;;5011705;28;98720;-79
2023/03/09 09:01:28;;;;;;;29.45;20.75;;;;;;;;;;5012966;28;98571;-77
2023/03/09 09:03:54;;;;;;;23.27;17.75;;;;;;;;;;5029501;28;100443;-78
2023/03/09 09:06:21;;;;;;;26.00;19.30;;;;;;;;;;5014455;27;98377;-77
2023/03/09 09:08:47;;;;;;;27.05;19.25;;;;;;;;;;5011879;28;100075;-78
2023/03/09 09:11:15;;;;;;;28.55;21.38;;;;;;;;;;5013159;28;99124;-77
2023/03/09 09:13:42;;;;;;;28.90;20.35;;;;;;;;;;5012410;28;98259;-78
2023/03/09 09:16:09;;;;;;;31.88;21.85;;;;;;;;;;5013800;28;98537;-78
2023/03/09 09:18:40;;;;;;;31.40;22.98;;;;;;;;;;5018818;28;98215;-79
2023/03/09 09:21:11;;;;;;;29.08;20.05;;;;;;;;;;5021966;28;98497;-78
2023/03/09 09:23:38;;;;;;;31.50;20.40;;;;;;;;;;5029470;27;99335;-79
2023/03/09 09:26:05;;;;;;;28.65;19.17;;;;;;;;;;5030013;27;98359;-78
2023/03/09 09:28:31;;;;;;;28.42;20.27;;;;;;;;;;5029054;27;98574;-79
2023/03/09 09:30:59;;;;;;;28.67;21.17;;;;;;;;;;5028371;27;98362;-78
2023/03/09 09:33:28;;;;;;;24.55;18.90;;;;;;;;;;5031155;27;98447;-78
2023/03/09 09:35:58;;;;;;;28.63;21.05;;;;;;;;;;5030194;28;99439;-78
2023/03/09 09:38:26;;;;;;;22.73;18.02;;;;;;;;;;5026734;27;99101;-77
2023/03/09 09:40:53;;;;;;;25.23;19.73;;;;;;;;;;5021983;27;98438;-77
2023/03/09 09:43:23;;;;;;;27.23;19.38;;;;;;;;;;5015950;28;101458;-77
2023/03/09 09:45:51;;;;;;;29.60;20.08;;;;;;;;;;5025962;27;98238;-77
2023/03/09 09:48:18;;;;;;;29.63;21.05;;;;;;;;;;5030102;27;98409;-77
2023/03/09 09:51:02;;;;;;;28.13;19.50;;;;;;;;;;5028577;27;98938;-78
2023/03/09 09:53:28;;;;;;;27.35;21.10;;;;;;;;;;5027746;28;98094;-78
2023/03/09 09:55:57;;;;;;;28.35;21.30;;;;;;;;;;5027864;28;99541;-77
2023/03/09 09:58:30;;;;;;;32.65;21.48;;;;;;;;;;5023837;28;100592;-82
2023/03/09 10:00:57;;;;;;;30.00;22.27;;;;;;;;;;5033246;28;98092;-82
2023/03/09 10:03:35;;;;;;;29.45;21.30;;;;;;;;;;5023725;27;99355;-81
2023/03/09 10:06:14;;;;;;;29.23;21.50;;;;;;;;;;5029184;27;98272;-78
2023/03/09 10:08:44;;;;;;;28.98;20.13;;;;;;;;;;5030154;27;99327;-82
2023/03/09 10:11:20;;;;;;;29.90;20.58;;;;;;;;;;5022195;27;99917;-82
2023/03/09 10:13:48;;;;;;;32.05;22.02;;;;;;;;;;5024195;28;98132;-82
2023/03/09 10:16:16;;;;;;;29.00;21.40;;;;;;;;;;5024417;27;99885;-79
2023/03/09 10:18:48;;;;;;;26.40;20.38;;;;;;;;;;5029220;27;100115;-83
2023/03/09 10:21:18;;;;;;;29.53;21.70;;;;;;;;;;5030116;27;98249;-77
2023/03/09 10:23:48;;;;;;;25.77;19.35;;;;;;;;;;5031063;27;99700;-80
2023/03/09 10:26:22;;;;;;;31.60;20.08;;;;;;;;;;5029117;27;98268;-81
2023/03/09 10:28:56;;;;;;;29.40;18.88;;;;;;;;;;5026332;28;99555;-82
2023/03/09 10:31:28;;;;;;;33.22;21.73;;;;;;;;;;5028987;27;100368;-81
2023/03/09 10:34:04;;;;;;;30.70;22.17;;;;;;;;;;5029408;28;98198;-82
2023/03/09 10:36:31;;;;;;;31.98;21.92;;;;;;;;;;5022443;28;99648;-82
2023/03/09 10:39:02;;;;;;;28.55;20.70;;;;;;;;;;5027063;27;98598;-90
2023/03/09 10:41:29;;;;;;;27.40;20.67;;;;;;;;;;5028775;27;98412;-84
2023/03/09 10:43:56;;;;;;;32.95;22.88;;;;;;;;;;5018964;27;98477;-78
2023/03/09 10:46:23;;;;;;;27.13;20.95;;;;;;;;;;5030888;28;99082;-77
2023/03/09 10:49:08;;;;;;;33.35;21.55;;;;;;;;;;5022250;27;99624;-79
2023/03/09 10:51:39;;;;;;;26.80;18.77;;;;;;;;;;5028985;27;99089;-81
2023/03/09 10:54:17;;;;;;;29.23;19.42;;;;;;;;;;5022393;28;100496;-78
2023/03/09 10:56:44;;;;;;;23.63;16.70;;;;;;;;;;5022265;27;99821;-78
2023/03/09 10:59:18;;;;;;;30.02;21.48;;;;;;;;;;5028178;27;98111;-77
2023/03/09 11:01:46;;;;;;;31.48;20.65;;;;;;;;;;5025541;28;98346;-77
2023/03/09 11:04:22;;;;;;;31.58;20.98;;;;;;;;;;5028468;27;99385;-78
2023/03/09 11:06:56;;;;;;;26.90;19.60;;;;;;;;;;5027319;28;100165;-77
2023/03/09 11:09:29;;;;;;;35.25;22.05;;;;;;;;;;5027816;27;98900;-77
2023/03/09 11:12:07;;;;;;;26.95;19.98;;;;;;;;;;5026605;27;99881;-76
2023/03/09 11:14:35;;;;;;;31.42;21.27;;;;;;;;;;5024921;27;100036;-77
2023/03/09 11:17:01;;;;;;;27.38;17.98;;;;;;;;;;5020341;27;98923;-78
2023/03/09 11:19:28;;;;;;;26.42;20.17;;;;;;;;;;5028256;28;98839;-78
2023/03/09 11:22:00;;;;;;;24.13;19.50;;;;;;;;;;5031750;27;98573;-78
2023/03/09 11:24:31;;;;;;;22.70;14.88;;;;;;;;;;5028874;27;99595;-78
2023/03/09 11:27:05;;;;;;;25.65;17.02;;;;;;;;;;5026571;27;98960;-78
2023/03/09 11:29:38;;;;;;;25.80;19.42;;;;;;;;;;5025127;28;98257;-78
2023/03/09 11:32:07;;;;;;;28.50;22.00;;;;;;;;;;5026338;27;99233;-78
2023/03/09 11:34:39;;;;;;;30.15;18.40;;;;;;;;;;5027370;27;98085;-77
2023/03/09 11:37:06;;;;;;;30.48;21.40;;;;;;;;;;5018883;28;98622;-77
2023/03/09 11:39:40;;;;;;;29.05;20.95;;;;;;;;;;5022041;27;99966;-77
2023/03/09 11:42:10;;;;;;;35.15;23.08;;;;;;;;;;5027911;27;98218;-78
2023/03/09 11:44:39;;;;;;;30.30;20.63;;;;;;;;;;5017772;27;98743;-78
2023/03/09 11:47:15;;;;;;;32.05;21.85;;;;;;;;;;5022736;28;99915;-80
2023/03/09 11:49:42;;;;;;;26.45;21.20;;;;;;;;;;5021864;27;98593;-81
2023/03/09 11:52:16;;;;;;;46.65;30.42;;;;;;;;;;5023462;28;98137;-79
2023/03/09 11:54:44;;;;;;;27.90;19.30;;;;;;;;;;5028846;27;98074;-81
2023/03/09 11:57:13;;;;;;;21.08;15.85;;;;;;;;;;5019223;27;98694;-80
2023/03/09 11:59:57;;;;;;;35.03;22.83;;;;;;;;;;5024362;27;99613;-79
2023/03/09 12:02:34;;;;;;;38.17;29.38;;;;;;;;;;5024713;27;98339;-80
2023/03/09 12:05:01;;;;;;;32.92;22.92;;;;;;;;;;5022885;28;99260;-76
2023/03/09 12:07:32;;;;;;;35.97;24.27;;;;;;;;;;5028895;27;101262;-79
2023/03/09 12:10:08;;;;;;;27.30;20.60;;;;;;;;;;5019381;27;99746;-77
2023/03/09 12:12:43;;;;;;;34.95;22.25;;;;;;;;;;5019022;27;98948;-79
2023/03/09 12:15:16;;;;;;;57.60;31.40;;;;;;;;;;5025230;27;99366;-78
2023/03/09 12:17:48;;;;;;;30.35;21.58;;;;;;;;;;5017506;28;100144;-78
2023/03/09 12:20:31;;;;;;;34.97;24.27;;;;;;;;;;5026104;27;99255;-77
2023/03/09 12:22:58;;;;;;;31.50;21.67;;;;;;;;;;5026734;27;98284;-77
2023/03/09 12:25:25;;;;;;;34.45;23.02;;;;;;;;;;5017827;27;99446;-77
2023/03/09 12:27:53;;;;;;;40.13;19.80;;;;;;;;;;5017415;28;100218;-77
2023/03/09 12:30:30;;;;;;;43.13;23.17;;;;;;;;;;5018094;27;98289;-77
2023/03/09 12:33:00;;;;;;;34.03;23.33;;;;;;;;;;5018718;27;99005;-77
2023/03/09 12:35:26;;;;;;;35.42;23.17;;;;;;;;;;5022939;27;100138;-77
2023/03/09 12:38:03;;;;;;;36.13;23.58;;;;;;;;;;5021873;27;98581;-77
2023/03/09 12:40:34;;;;;;;39.63;25.02;;;;;;;;;;5016572;28;98987;-77
2023/03/09 12:43:15;;;;;;;40.10;25.00;;;;;;;;;;5026029;27;99972;-75
2023/03/09 12:45:42;;;;;;;27.08;18.25;;;;;;;;;;5016155;28;99461;-76
2023/03/09 12:48:12;;;;;;;27.10;17.85;;;;;;;;;;5015734;28;99537;-78
2023/03/09 12:50:38;;;;;;;32.05;21.17;;;;;;;;;;5018161;28;98422;-78
2023/03/09 12:53:14;;;;;;;39.35;28.17;;;;;;;;;;5014861;28;99529;-78
2023/03/09 12:55:43;;;;;;;40.15;25.60;;;;;;;;;;5013975;28;99535;-78
2023/03/09 12:58:19;;;;;;;36.63;24.10;;;;;;;;;;5018914;28;98877;-78
2023/03/09 13:00:50;;;;;;;37.42;22.92;;;;;;;;;;5024641;28;99586;-79
2023/03/09 13:03:18;;;;;;;36.60;23.88;;;;;;;;;;5015488;28;98869;-79
2023/03/09 13:05:46;;;;;;;34.03;22.10;;;;;;;;;;5018136;28;99596;-79
2023/03/09 13:08:26;;;;;;;36.65;23.02;;;;;;;;;;5011497;28;100100;-78
2023/03/09 13:11:12;;;;;;;41.88;24.67;;;;;;;;;;5015571;27;99131;-78
2023/03/09 13:13:40;;;;;;;37.75;23.50;;;;;;;;;;5016590;28;99221;-81
2023/03/09 13:16:25;;;;;;;37.33;21.42;;;;;;;;;;5011838;27;100062;-76
2023/03/09 13:19:26;;;;;;;42.33;24.35;;;;;;;;;;5019206;28;98182;-78
2023/03/09 13:21:56;;;;;;;43.15;23.38;;;;;;;;;;4994631;28;98556;-78
2023/03/09 13:24:29;;;;;;;44.40;26.42;;;;;;;;;;5028174;27;98778;-79
2023/03/09 13:26:58;;;;;;;25.10;15.93;;;;;;;;;;5028150;28;98765;-75
2023/03/09 13:29:25;;;;;;;27.45;15.65;;;;;;;;;;5032851;28;99891;-76
2023/03/09 13:31:54;;;;;;;29.55;18.65;;;;;;;;;;5039780;28;98114;-76
2023/03/09 13:34:25;;;;;;;43.70;23.30;;;;;;;;;;5028532;28;98690;-77
2023/03/09 13:36:53;;;;;;;39.90;21.92;;;;;;;;;;5033445;28;99894;-76
2023/03/09 13:39:21;;;;;;;29.10;17.52;;;;;;;;;;5032887;27;98102;-78
2023/03/09 13:41:48;;;;;;;49.13;22.83;;;;;;;;;;5021672;28;99054;-77
2023/03/09 13:44:16;;;;;;;37.35;20.73;;;;;;;;;;5024479;27;100446;-78
2023/03/09 13:47:03;;;;;;;48.67;21.98;;;;;;;;;;5018132;28;99008;-75
2023/03/09 13:49:34;;;;;;;35.70;19.58;;;;;;;;;;5026158;27;99661;-75
2023/03/09 13:52:00;;;;;;;46.15;23.88;;;;;;;;;;5024967;27;98625;-75
2023/03/09 13:54:31;;;;;;;62.50;24.70;;;;;;;;;;5026607;27;99835;-77
2023/03/09 13:57:03;;;;;;;56.47;24.52;;;;;;;;;;5021109;28;99066;-76
2023/03/09 13:59:46;;;;;;;35.75;17.33;;;;;;;;;;5022093;27;99721;-76
2023/03/09 14:02:12;;;;;;;49.08;23.35;;;;;;;;;;5015142;27;98629;-75
2023/03/09 14:04:50;;;;;;;51.03;23.35;;;;;;;;;;5035982;27;98206;-76
2023/03/09 14:07:21;;;;;;;44.03;20.92;;;;;;;;;;5044870;27;97978;-76
2023/03/09 14:09:58;;;;;;;39.67;18.50;;;;;;;;;;5029985;28;99060;-77
2023/03/09 14:12:27;;;;;;;44.38;20.70;;;;;;;;;;5032737;27;99519;-75
2023/03/09 14:14:53;;;;;;;54.05;23.27;;;;;;;;;;5030602;27;99499;-79
2023/03/09 14:17:20;;;;;;;129.77;70.18;;;;;;;;;;5027099;27;98911;-78
2023/03/09 14:19:49;;;;;;;76.90;32.42;;;;;;;;;;5028586;28;98702;-77
2023/03/09 14:22:20;;;;;;;75.50;40.40;;;;;;;;;;5019781;27;98818;-77
2023/03/09 14:24:46;;;;;;;76.05;32.65;;;;;;;;;;5021764;28;99360;-77
2023/03/09 14:27:33;;;;;;;46.67;20.95;;;;;;;;;;5020761;28;98242;-76
2023/03/09 14:30:18;;;;;;;42.72;20.63;;;;;;;;;;5021480;27;101597;-76